Time;durP1;ratioP1;P1;durP2;ratioP2;P2;SDS_P1;SDS_P2;PMS_P1;PMS_P2;Temp;Humidity;BMP_temperature;BMP_pressure;BME280_temperature;BME280_humidity;BME280_pressure;Samples;Min_cycle;Max_cycle;Signal;HPM_P1;HPM_P2
2022/03/24 00:01:27;;;;;;;31.05;14.10;;;;;;;2.35;46.63;96276.75;5085848;28;20024;-69
2022/03/24 00:03:52;;;;;;;32.20;14.07;;;;;;;2.35;47.07;96271.47;5086595;28;20364;-69
2022/03/24 00:06:18;;;;;;;27.17;14.30;;;;;;;2.37;46.33;96268.72;5086510;28;20439;-68
2022/03/24 00:08:43;;;;;;;32.88;14.73;;;;;;;2.29;46.20;96260.47;5086624;28;20445;-69
2022/03/24 00:11:09;;;;;;;31.27;15.55;;;;;;;2.17;46.92;96254.19;5085806;28;20024;-70
2022/03/24 00:13:36;;;;;;;28.33;15.18;;;;;;;2.06;47.07;96262.88;5086852;28;20089;-69
2022/03/24 00:16:02;;;;;;;28.30;14.93;;;;;;;2.05;46.83;96256.72;5085771;28;20413;-70
2022/03/24 00:18:30;;;;;;;30.85;15.45;;;;;;;2.04;47.27;96255.03;5068645;28;20024;-69
2022/03/24 00:20:55;;;;;;;28.65;15.23;;;;;;;2.01;47.31;96244.66;5086064;28;20031;-69
2022/03/24 00:23:20;;;;;;;34.10;14.75;;;;;;;1.99;47.39;96259.78;5086062;28;20021;-69
2022/03/24 00:25:46;;;;;;;25.88;12.85;;;;;;;1.93;47.39;96252.25;5086408;28;20019;-69
2022/03/24 00:28:11;;;;;;;22.10;12.27;;;;;;;1.95;48.20;96248.56;5085636;28;20380;-68
2022/03/24 00:30:37;;;;;;;27.17;12.30;;;;;;;1.92;48.57;96245.28;5086313;28;20028;-70
2022/03/24 00:33:03;;;;;;;25.42;12.02;;;;;;;1.90;47.78;96233.94;5085954;28;20032;-69
2022/03/24 00:35:29;;;;;;;27.05;11.45;;;;;;;1.94;48.20;96243.38;5086404;28;20406;-69
2022/03/24 00:37:54;;;;;;;21.88;11.15;;;;;;;1.89;48.62;96232.25;5085404;28;20517;-70
2022/03/24 00:40:19;;;;;;;18.98;11.25;;;;;;;1.90;48.36;96232.16;5086012;28;20534;-68
2022/03/24 00:42:45;;;;;;;20.25;10.88;;;;;;;1.85;49.38;96231.63;5086059;28;20035;-69
2022/03/24 00:45:12;;;;;;;21.77;11.35;;;;;;;1.84;49.26;96229.91;5085821;28;20035;-68
2022/03/24 00:47:42;;;;;;;25.10;11.55;;;;;;;1.74;49.17;96224.41;5086053;28;20078;-68
2022/03/24 00:50:09;;;;;;;22.38;12.13;;;;;;;1.77;48.99;96226.00;5085107;28;20077;-69
2022/03/24 00:52:40;;;;;;;19.35;10.90;;;;;;;1.77;49.08;96226.00;5086224;28;20038;-69
2022/03/24 00:55:13;;;;;;;21.45;11.05;;;;;;;1.74;49.09;96229.69;5083948;28;20020;-69
2022/03/24 00:57:39;;;;;;;20.02;11.77;;;;;;;1.71;49.30;96222.78;5086172;28;20069;-69
2022/03/24 01:00:06;;;;;;;33.75;12.35;;;;;;;1.62;49.45;96226.06;5084789;28;20035;-70
2022/03/24 01:02:31;;;;;;;29.42;11.75;;;;;;;1.57;49.08;96228.16;5083963;28;20394;-69
2022/03/24 01:04:56;;;;;;;23.73;11.15;;;;;;;1.58;48.78;96225.41;5085371;28;20032;-70
2022/03/24 01:07:23;;;;;;;19.02;11.73;;;;;;;1.64;48.21;96228.59;5084791;28;20032;-67
2022/03/24 01:09:48;;;;;;;26.05;11.90;;;;;;;1.60;48.52;96220.88;5085770;28;20024;-69
2022/03/24 01:12:14;;;;;;;19.83;10.45;;;;;;;1.58;48.96;96214.84;5084967;28;20036;-68
2022/03/24 01:14:39;;;;;;;24.38;11.15;;;;;;;1.64;47.96;96218.88;5085944;28;20028;-69
2022/03/24 01:17:07;;;;;;;16.10;9.70;;;;;;;1.62;48.15;96207.56;5085069;28;20117;-69
2022/03/24 01:19:32;;;;;;;18.27;10.13;;;;;;;1.60;48.49;96212.94;5085086;28;20089;-70
2022/03/24 01:21:58;;;;;;;26.42;12.32;;;;;;;1.60;49.06;96206.78;5085130;28;20111;-68
2022/03/24 01:24:24;;;;;;;23.52;12.27;;;;;;;1.56;48.56;96206.19;5084642;28;20410;-68
2022/03/24 01:26:49;;;;;;;21.95;11.65;;;;;;;1.52;49.55;96209.94;5085755;28;20020;-68
2022/03/24 01:29:15;;;;;;;21.95;12.63;;;;;;;1.44;49.14;96206.97;5084868;28;20021;-68
2022/03/24 01:31:42;;;;;;;22.63;11.90;;;;;;;1.36;49.58;96199.53;5085259;28;20032;-70
2022/03/24 01:34:09;;;;;;;22.80;11.45;;;;;;;1.31;49.85;96202.50;5084752;28;20030;-69
2022/03/24 01:36:35;;;;;;;28.13;12.20;;;;;;;1.29;49.80;96198.25;5084954;28;20048;-70
2022/03/24 01:39:00;;;;;;;23.40;12.18;;;;;;;1.18;49.80;96196.28;5084911;28;20024;-69
2022/03/24 01:41:25;;;;;;;24.67;12.52;;;;;;;1.17;50.36;96197.25;5084646;28;20089;-69
2022/03/24 01:43:51;;;;;;;23.98;12.77;;;;;;;1.15;50.69;96196.50;5085161;28;20027;-69
2022/03/24 01:46:22;;;;;;;22.33;11.88;;;;;;;1.15;50.11;96193.84;5084555;28;20028;-70
2022/03/24 01:48:48;;;;;;;24.00;12.00;;;;;;;1.15;50.19;96196.50;5085455;28;20041;-70
2022/03/24 01:51:13;;;;;;;26.67;11.88;;;;;;;1.13;49.46;96190.50;5084521;28;20028;-71
2022/03/24 01:53:39;;;;;;;22.55;11.15;;;;;;;1.09;50.29;96203.91;5085041;28;20028;-69
2022/03/24 01:56:05;;;;;;;23.17;10.93;;;;;;;1.02;49.73;96202.59;5083068;28;20394;-70
2022/03/24 01:58:30;;;;;;;18.88;10.52;;;;;;;0.95;49.64;96198.66;5084737;28;20028;-68
2022/03/24 02:01:00;;;;;;;18.13;9.93;;;;;;;0.92;50.02;96197.03;5066582;28;20031;-68
2022/03/24 02:03:26;;;;;;;23.75;11.70;;;;;;;0.89;50.44;96196.41;5066241;28;20532;-68
2022/03/24 02:05:51;;;;;;;19.65;10.02;;;;;;;0.84;50.65;96200.16;5082828;28;20040;-69
2022/03/24 02:08:17;;;;;;;20.10;11.23;;;;;;;0.91;49.68;96197.13;5084265;28;20035;-69
2022/03/24 02:10:42;;;;;;;23.52;11.52;;;;;;;0.91;50.12;96199.78;5084681;28;20414;-68
2022/03/24 02:13:09;;;;;;;21.48;10.52;;;;;;;0.80;49.95;96192.53;5070061;28;20032;-68
2022/03/24 02:15:34;;;;;;;25.13;11.25;;;;;;;0.87;50.09;96196.50;5089206;28;20035;-68
2022/03/24 02:18:00;;;;;;;20.25;9.95;;;;;;;0.91;49.62;96194.50;5088633;28;20036;-68
2022/03/24 02:20:28;;;;;;;19.58;10.73;;;;;;;0.83;49.96;96201.13;5088795;28;20020;-68
2022/03/24 02:22:53;;;;;;;19.50;10.52;;;;;;;0.81;50.29;96194.22;5070681;28;20028;-70
2022/03/24 02:25:19;;;;;;;19.30;10.20;;;;;;;0.78;49.38;96195.28;5088222;28;20035;-69
2022/03/24 02:27:49;;;;;;;22.58;10.65;;;;;;;0.70;49.88;96187.84;5088868;28;20028;-69
2022/03/24 02:30:14;;;;;;;18.02;9.43;;;;;;;0.68;50.49;96183.59;5088340;28;20042;-70
2022/03/24 02:32:40;;;;;;;19.42;10.27;;;;;;;0.68;50.51;96186.22;5088819;28;20028;-70
2022/03/24 02:35:06;;;;;;;22.48;10.95;;;;;;;0.63;49.92;96183.06;5088327;28;20474;-69
2022/03/24 02:37:31;;;;;;;20.33;10.23;;;;;;;0.56;49.37;96178.16;5088057;28;20048;-70
2022/03/24 02:39:58;;;;;;;25.63;10.68;;;;;;;0.51;49.81;96190.81;5087836;28;20043;-70
2022/03/24 02:42:29;;;;;;;24.63;11.27;;;;;;;0.49;50.68;96190.91;5086552;28;20054;-68
2022/03/24 02:44:58;;;;;;;28.20;12.88;;;;;;;0.56;50.58;96193.16;5088474;28;20043;-69
2022/03/24 02:47:24;;;;;;;26.33;12.27;;;;;;;0.65;50.36;96189.06;5087983;28;20032;-70
2022/03/24 02:49:50;;;;;;;24.85;10.13;;;;;;;0.68;49.55;96183.59;5086917;28;20029;-68
2022/03/24 02:52:16;;;;;;;17.08;9.07;;;;;;;0.72;50.08;96177.19;5087960;28;20032;-68
2022/03/24 02:54:42;;;;;;;17.13;8.82;;;;;;;0.69;50.85;96180.03;5086481;28;20027;-69
2022/03/24 02:57:07;;;;;;;20.60;9.90;;;;;;;0.65;50.67;96181.16;5086775;28;20085;-69
2022/03/24 02:59:33;;;;;;;24.27;10.98;;;;;;;0.57;50.83;96182.50;5087664;28;20028;-69
2022/03/24 03:02:06;;;;;;;23.70;10.25;;;;;;;0.52;50.70;96179.28;5087925;28;20020;-70
2022/03/24 03:04:32;;;;;;;20.80;9.73;;;;;;;0.60;51.13;96184.94;5087629;28;20122;-70
2022/03/24 03:06:58;;;;;;;19.98;10.32;;;;;;;0.65;50.58;96175.88;5086831;28;20024;-69
2022/03/24 03:09:24;;;;;;;17.08;9.65;;;;;;;0.69;50.18;96169.47;5087600;28;20027;-68
2022/03/24 03:11:51;;;;;;;24.52;10.20;;;;;;;0.63;51.10;96173.31;5087843;28;20032;-70
2022/03/24 03:14:17;;;;;;;20.67;9.40;;;;;;;0.51;51.35;96174.09;5087566;28;20043;-69
2022/03/24 03:16:44;;;;;;;25.05;10.27;;;;;;;0.43;50.88;96179.88;5086114;28;20032;-69
2022/03/24 03:19:10;;;;;;;21.42;9.48;;;;;;;0.39;50.91;96173.91;5086193;28;20391;-70
2022/03/24 03:21:36;;;;;;;15.10;9.43;;;;;;;0.34;50.68;96181.28;5085896;28;20024;-70
2022/03/24 03:24:03;;;;;;;15.85;8.07;;;;;;;0.33;51.43;96176.94;5086846;28;20103;-70
2022/03/24 03:26:28;;;;;;;18.75;9.30;;;;;;;0.30;52.23;96180.63;5087082;28;20114;-68
2022/03/24 03:28:54;;;;;;;20.63;9.80;;;;;;;0.38;51.21;96176.66;5086300;28;20135;-68
2022/03/24 03:31:20;;;;;;;20.27;9.32;;;;;;;0.39;51.46;96178.38;5087343;28;20028;-70
2022/03/24 03:33:45;;;;;;;22.08;10.02;;;;;;;0.32;51.78;96178.72;5087277;28;20103;-69
2022/03/24 03:36:11;;;;;;;21.80;11.05;;;;;;;0.25;51.51;96185.34;5086912;28;20035;-68
2022/03/24 03:38:36;;;;;;;21.77;9.80;;;;;;;0.14;52.76;96179.88;5086644;28;20044;-69
2022/03/24 03:41:02;;;;;;;22.17;10.32;;;;;;;0.11;52.44;96186.19;5087230;28;20035;-69
2022/03/24 03:43:28;;;;;;;18.73;10.50;;;;;;;0.03;52.82;96181.38;5086954;28;20020;-70
2022/03/24 03:45:53;;;;;;;22.67;10.98;;;;;;;-0.06;52.50;96185.41;5087213;28;20032;-69
2022/03/24 03:48:19;;;;;;;24.60;10.80;;;;;;;-0.09;52.70;96188.25;5086899;28;20104;-68
2022/03/24 03:50:44;;;;;;;25.55;11.38;;;;;;;-0.20;52.99;96180.97;5087226;28;20037;-69
2022/03/24 03:53:10;;;;;;;23.10;12.27;;;;;;;-0.20;53.13;96180.97;5086638;28;20028;-68
2022/03/24 03:55:38;;;;;;;26.17;11.98;;;;;;;-0.20;53.38;96180.97;5087160;28;20383;-69
2022/03/24 03:58:07;;;;;;;19.17;10.40;;;;;;;-0.22;53.21;96184.63;5086888;28;20027;-68
2022/03/24 04:03:17;;;;;;;24.17;11.40;;;;;;;-0.32;53.60;96172.00;5086987;28;20035;-69
2022/03/24 04:05:43;;;;;;;19.70;11.50;;;;;;;-0.32;53.24;96173.81;5086434;28;20035;-69
2022/03/24 04:08:10;;;;;;;21.63;11.75;;;;;;;-0.39;53.78;96168.88;5086368;28;20028;-68
2022/03/24 04:10:35;;;;;;;22.20;10.85;;;;;;;-0.33;53.80;96177.38;5086727;28;20036;-68
2022/03/24 04:13:00;;;;;;;21.85;10.75;;;;;;;-0.30;53.45;96177.19;5086265;28;20121;-69
2022/03/24 04:15:26;;;;;;;21.52;10.20;;;;;;;-0.29;53.69;96179.72;5086630;28;20027;-69
2022/03/24 04:17:51;;;;;;;25.10;11.55;;;;;;;-0.29;53.82;96184.16;5086204;28;20028;-69
2022/03/24 04:20:23;;;;;;;23.70;12.65;;;;;;;-0.22;54.39;96185.47;5086662;28;20024;-69
2022/03/24 04:22:52;;;;;;;22.15;11.85;;;;;;;-0.24;53.81;96182.09;5086022;28;20153;-70
2022/03/24 04:25:18;;;;;;;27.35;13.10;;;;;;;-0.20;55.17;96183.63;5086120;28;20492;-69
2022/03/24 04:27:44;;;;;;;26.95;10.40;;;;;;;-0.29;54.44;96184.16;5086143;28;20067;-70
2022/03/24 04:30:11;;;;;;;25.70;10.68;;;;;;;-0.35;54.59;96177.44;5085908;28;20032;-71
2022/03/24 04:32:36;;;;;;;22.00;10.15;;;;;;;-0.34;54.85;96180.94;5086130;28;20119;-68
2022/03/24 04:35:02;;;;;;;21.75;10.98;;;;;;;-0.30;53.83;96185.09;5084691;28;20028;-70
2022/03/24 04:37:27;;;;;;;23.45;11.68;;;;;;;-0.25;54.10;96183.03;5085909;28;20047;-70
2022/03/24 04:39:52;;;;;;;19.60;10.68;;;;;;;-0.28;54.74;96186.72;5085784;28;20039;-68
2022/03/24 04:42:18;;;;;;;25.38;10.73;;;;;;;-0.23;53.95;96177.66;5086022;28;20673;-69
2022/03/24 04:44:43;;;;;;;24.10;10.95;;;;;;;-0.16;53.51;96182.47;5085766;28;20436;-69
2022/03/24 04:47:09;;;;;;;21.40;10.73;;;;;;;-0.11;54.13;96186.66;5084538;28;20024;-68
2022/03/24 04:49:34;;;;;;;24.15;10.88;;;;;;;-0.18;54.65;96189.63;5085837;28;20024;-70
2022/03/24 04:52:00;;;;;;;29.55;11.45;;;;;;;-0.16;54.58;96192.19;5085406;28;20438;-69
2022/03/24 04:54:25;;;;;;;20.83;10.38;;;;;;;-0.13;54.81;96198.13;5085906;28;20020;-70
2022/03/24 04:56:58;;;;;;;22.92;10.55;;;;;;;-0.02;54.19;96199.28;5134788;27;1279760;-70
2022/03/24 04:59:23;;;;;;;29.20;11.48;;;;;;;0.05;53.39;96192.66;5124854;28;20035;-70
2022/03/24 05:01:49;;;;;;;25.50;11.38;;;;;;;0.13;53.50;96186.94;5125193;28;20027;-69
2022/03/24 05:04:15;;;;;;;26.27;11.13;;;;;;;0.22;53.33;96191.66;5124786;27;20023;-69
2022/03/24 05:06:41;;;;;;;25.60;11.15;;;;;;;0.39;53.32;96196.84;5124678;27;20120;-70
2022/03/24 05:09:07;;;;;;;23.05;11.30;;;;;;;0.48;52.47;96198.91;5124753;27;20105;-70
2022/03/24 05:11:32;;;;;;;27.23;11.18;;;;;;;0.58;53.00;96196.56;5124569;28;20507;-70
2022/03/24 05:13:58;;;;;;;20.00;10.35;;;;;;;0.68;52.93;96196.78;5124878;28;20030;-70
2022/03/24 05:16:23;;;;;;;24.40;11.50;;;;;;;0.77;52.34;96193.59;5124454;28;20031;-70
2022/03/24 05:18:48;;;;;;;25.52;11.73;;;;;;;0.95;51.80;96196.84;5124979;28;20027;-70
2022/03/24 05:21:14;;;;;;;17.67;10.15;;;;;;;1.10;51.85;96188.88;5124708;28;20031;-70
2022/03/24 05:23:39;;;;;;;20.13;10.88;;;;;;;1.28;50.85;96197.41;5124395;27;20477;-69
2022/03/24 05:26:05;;;;;;;19.77;13.15;;;;;;;1.41;50.62;96193.94;5124433;28;20080;-68
2022/03/24 05:28:31;;;;;;;25.75;12.10;;;;;;;1.59;50.04;96191.88;5124425;27;20403;-69
2022/03/24 05:30:56;;;;;;;22.02;11.73;;;;;;;1.75;49.55;96194.34;5123226;28;20027;-69
2022/03/24 05:33:22;;;;;;;19.45;11.10;;;;;;;1.90;50.09;96192.47;5124127;27;20054;-70
2022/03/24 05:35:47;;;;;;;22.15;11.15;;;;;;;2.07;49.32;96188.66;5124945;28;20337;-70
2022/03/24 05:38:13;;;;;;;23.25;11.40;;;;;;;2.24;48.86;96191.09;5124258;27;20038;-69
2022/03/24 05:40:39;;;;;;;24.23;11.85;;;;;;;2.35;49.50;96191.22;5124375;27;20504;-69
2022/03/24 05:43:06;;;;;;;24.60;11.80;;;;;;;2.52;49.26;96182.06;5124340;27;20511;-69
2022/03/24 05:45:31;;;;;;;20.60;12.05;;;;;;;2.62;49.47;96181.41;5123946;27;20020;-69
2022/03/24 05:47:57;;;;;;;22.65;11.98;;;;;;;2.83;49.09;96184.34;5122753;28;20023;-68
2022/03/24 05:50:24;;;;;;;27.58;12.80;;;;;;;2.97;48.36;96180.69;5124155;27;20027;-69
2022/03/24 05:52:50;;;;;;;29.40;12.63;;;;;;;3.19;48.55;96184.44;5123946;27;20027;-69
2022/03/24 05:55:19;;;;;;;28.77;12.98;;;;;;;3.38;48.04;96177.78;5124223;28;20563;-69
2022/03/24 05:57:44;;;;;;;28.55;13.10;;;;;;;3.58;47.51;96182.44;5123674;27;20051;-69
2022/03/24 06:00:10;;;;;;;30.75;14.57;;;;;;;3.52;47.29;96188.22;5121423;28;20080;-69
2022/03/24 06:02:36;;;;;;;31.45;14.52;;;;;;;3.82;45.91;96192.16;5123139;27;20472;-71
2022/03/24 06:05:01;;;;;;;24.92;14.88;;;;;;;3.88;46.46;96193.53;5122442;27;20509;-69
2022/03/24 06:07:28;;;;;;;28.60;16.50;;;;;;;4.07;46.11;96189.44;5112998;28;20042;-69
2022/03/24 06:09:53;;;;;;;35.85;16.92;;;;;;;4.19;45.33;96191.16;5090461;28;20036;-70
2022/03/24 06:12:20;;;;;;;35.63;15.73;;;;;;;4.40;44.27;96185.13;5109285;28;20563;-70
2022/03/24 06:14:45;;;;;;;49.47;18.25;;;;;;;4.15;44.64;96188.84;5108941;28;20069;-69
2022/03/24 06:17:11;;;;;;;37.13;16.58;;;;;;;4.32;43.95;96185.75;5108901;28;20024;-69
2022/03/24 06:19:36;;;;;;;57.05;16.67;;;;;;;4.51;44.50;96184.31;5109063;28;20020;-70
2022/03/24 06:22:03;;;;;;;40.13;17.02;;;;;;;4.68;43.61;96182.13;5109008;28;20020;-69
2022/03/24 06:24:31;;;;;;;38.88;16.90;;;;;;;4.82;43.99;96181.88;5107525;28;20030;-69
2022/03/24 06:26:57;;;;;;;43.60;17.35;;;;;;;5.01;42.73;96179.56;5108408;28;20382;-69
2022/03/24 06:29:23;;;;;;;44.05;17.63;;;;;;;5.22;42.95;96173.47;5108840;28;20016;-69
2022/03/24 06:31:48;;;;;;;40.15;16.15;;;;;;;5.26;42.38;96180.22;5108455;28;20106;-69
2022/03/24 06:34:15;;;;;;;36.33;15.68;;;;;;;5.48;41.59;96168.66;5108655;28;20020;-70
2022/03/24 06:36:40;;;;;;;36.80;16.63;;;;;;;5.55;42.86;96171.66;5108646;28;20451;-70
2022/03/24 06:39:06;;;;;;;41.40;16.45;;;;;;;5.86;41.88;96168.25;5108169;28;20446;-69
2022/03/24 06:41:31;;;;;;;46.47;17.42;;;;;;;6.06;40.74;96167.44;5108784;28;20090;-71
2022/03/24 06:43:57;;;;;;;37.10;17.67;;;;;;;6.14;40.97;96174.75;5107850;28;20019;-71
2022/03/24 06:46:25;;;;;;;40.60;17.63;;;;;;;6.28;41.22;96168.28;5108688;28;20023;-70
2022/03/24 06:48:51;;;;;;;39.47;18.13;;;;;;;6.55;41.33;96172.19;5107820;27;20112;-70
2022/03/24 06:51:16;;;;;;;41.92;17.52;;;;;;;6.68;40.74;96168.44;5108357;28;20422;-69
2022/03/24 06:53:42;;;;;;;47.97;16.65;;;;;;;6.87;39.71;96158.81;5108394;28;20031;-69
2022/03/24 06:56:07;;;;;;;42.72;15.75;;;;;;;7.15;39.17;96159.03;5107946;28;20027;-69
2022/03/24 06:58:32;;;;;;;44.63;16.48;;;;;;;7.25;38.79;96161.72;5108351;28;20052;-68
2022/03/24 07:00:58;;;;;;;27.80;14.55;;;;;;;7.44;38.40;96154.69;5107662;28;20038;-69
2022/03/24 07:03:23;;;;;;;33.58;15.68;;;;;;;7.63;38.06;96157.38;5108178;28;20028;-69
2022/03/24 07:05:49;;;;;;;43.53;16.00;;;;;;;7.63;38.38;96153.88;5107594;28;20466;-70
2022/03/24 07:08:14;;;;;;;52.38;16.92;;;;;;;7.79;38.13;96147.97;5106798;28;20027;-68
2022/03/24 07:10:39;;;;;;;39.92;16.00;;;;;;;7.96;37.87;96154.44;5107841;28;20034;-70
2022/03/24 07:13:05;;;;;;;40.50;16.42;;;;;;;8.07;37.86;96155.22;5107861;28;20019;-69
2022/03/24 07:15:31;;;;;;;45.47;17.92;;;;;;;8.25;37.14;96153.50;5108284;28;20020;-71
2022/03/24 07:17:56;;;;;;;43.05;16.42;;;;;;;8.40;37.84;96155.72;5107084;28;20039;-72
2022/03/24 07:20:23;;;;;;;38.63;16.65;;;;;;;8.41;37.42;96144.03;5107521;28;20043;-69
2022/03/24 07:22:48;;;;;;;36.70;15.75;;;;;;;8.67;36.56;96146.09;5107308;28;20508;-70
2022/03/24 07:25:14;;;;;;;33.50;17.35;;;;;;;8.77;36.78;96146.88;5107488;28;20034;-68
2022/03/24 07:27:40;;;;;;;42.92;17.73;;;;;;;8.86;36.58;96147.84;5107285;27;20020;-69
2022/03/24 07:30:06;;;;;;;39.95;18.17;;;;;;;9.05;36.21;96150.53;5107417;28;20055;-69
2022/03/24 07:32:32;;;;;;;39.13;16.50;;;;;;;9.25;35.45;96140.56;5107598;28;20026;-69
2022/03/24 07:34:58;;;;;;;29.02;14.07;;;;;;;9.23;35.39;96143.41;5106985;28;20027;-68
2022/03/24 07:37:23;;;;;;;30.48;15.52;;;;;;;9.39;35.26;96140.06;5108129;28;20016;-69
2022/03/24 07:39:49;;;;;;;31.73;14.75;;;;;;;9.59;34.94;96144.41;5107116;28;20024;-69
2022/03/24 07:42:15;;;;;;;36.97;15.93;;;;;;;9.76;34.98;96148.06;5107169;28;20077;-69
2022/03/24 07:44:40;;;;;;;25.23;15.07;;;;;;;9.91;34.93;96134.97;5107117;28;20028;-69
2022/03/24 07:47:06;;;;;;;40.28;16.25;;;;;;;10.08;34.73;96133.25;5107403;28;20382;-69
2022/03/24 07:49:32;;;;;;;36.88;16.13;;;;;;;10.29;34.75;96139.25;5106999;28;20050;-69
2022/03/24 07:51:58;;;;;;;33.30;15.20;;;;;;;10.45;33.86;96135.81;5107083;28;20470;-69
2022/03/24 07:54:41;;;;;;;35.22;14.77;;;;;;;10.57;34.12;96137.28;5107372;28;20027;-70
2022/03/24 07:57:07;;;;;;;24.08;13.50;;;;;;;10.72;33.20;96131.31;5106182;28;20061;-69
2022/03/24 07:59:33;;;;;;;24.38;12.55;;;;;;;10.83;33.19;96124.81;5107262;28;20019;-69
2022/03/24 08:01:59;;;;;;;23.55;12.88;;;;;;;11.10;32.75;96126.44;5106769;28;20024;-69
2022/03/24 08:04:24;;;;;;;18.80;12.60;;;;;;;11.09;32.61;96123.91;5107115;28;20430;-69
2022/03/24 08:06:49;;;;;;;24.00;11.88;;;;;;;11.27;32.49;96117.56;5106750;28;20510;-72
2022/03/24 08:09:15;;;;;;;17.75;9.13;;;;;;;11.38;32.22;96118.09;5106599;28;20030;-69
2022/03/24 08:11:41;;;;;;;16.70;8.73;;;;;;;11.54;31.55;96123.66;5107008;28;20024;-69
2022/03/24 08:14:06;;;;;;;18.17;10.05;;;;;;;11.59;31.87;96114.06;5106379;28;20028;-70
2022/03/24 08:16:31;;;;;;;14.77;9.38;;;;;;;11.76;31.68;96119.47;5107000;28;20035;-69
2022/03/24 08:18:57;;;;;;;14.85;10.00;;;;;;;11.83;31.45;96109.72;5106313;28;20020;-70
2022/03/24 08:21:22;;;;;;;15.13;9.60;;;;;;;11.94;31.29;96105.88;5106698;28;20024;-71
2022/03/24 08:23:48;;;;;;;14.52;8.77;;;;;;;12.05;31.19;96106.50;5104823;28;20028;-70
2022/03/24 08:26:14;;;;;;;15.50;9.10;;;;;;;12.15;31.13;96104.53;5106227;28;20027;-70
2022/03/24 08:28:39;;;;;;;21.42;9.95;;;;;;;12.21;31.25;96100.31;5106699;28;20047;-69
2022/03/24 08:31:04;;;;;;;19.42;8.10;;;;;;;12.39;31.05;96094.72;5106448;28;20031;-69
2022/03/24 08:33:30;;;;;;;14.27;7.78;;;;;;;12.48;30.67;96091.00;5106524;28;20507;-69
2022/03/24 08:35:55;;;;;;;16.00;7.53;;;;;;;12.63;30.24;96090.28;5106002;28;20032;-70
2022/03/24 08:38:21;;;;;;;14.75;8.10;;;;;;;12.72;30.18;96086.53;5106883;28;20028;-70
2022/03/24 08:40:47;;;;;;;17.20;7.85;;;;;;;12.82;30.33;96085.50;5105796;28;20403;-69
2022/03/24 08:43:12;;;;;;;14.45;8.13;;;;;;;12.97;30.64;96080.22;5106207;28;20041;-70
2022/03/24 08:45:38;;;;;;;14.23;7.78;;;;;;;13.17;30.28;96087.84;5104533;28;20053;-69
2022/03/24 08:48:04;;;;;;;11.45;7.32;;;;;;;13.26;29.42;96083.25;5106316;28;20450;-70
2022/03/24 08:50:30;;;;;;;14.02;7.25;;;;;;;13.29;29.67;96074.81;5106291;28;20127;-70
2022/03/24 08:52:55;;;;;;;13.43;7.35;;;;;;;13.47;29.65;96074.53;5105887;28;20024;-71
2022/03/24 08:55:21;;;;;;;11.43;6.95;;;;;;;13.59;29.39;96064.19;5106191;28;20435;-70
2022/03/24 08:57:47;;;;;;;16.65;8.73;;;;;;;13.75;28.69;96059.69;5105500;28;20528;-69
2022/03/24 09:00:14;;;;;;;13.23;7.40;;;;;;;13.79;28.31;96058.28;5106386;28;20024;-71
2022/03/24 09:02:40;;;;;;;14.60;7.82;;;;;;;13.84;27.54;96056.75;5105353;28;20398;-69
2022/03/24 09:05:06;;;;;;;12.52;7.35;;;;;;;14.04;27.92;96050.81;5106343;28;20078;-69
2022/03/24 09:07:31;;;;;;;14.10;7.63;;;;;;;14.17;27.60;96052.88;5105979;28;20012;-70
2022/03/24 09:09:56;;;;;;;20.92;8.40;;;;;;;14.17;27.73;96049.38;5105570;28;20097;-70
2022/03/24 09:12:23;;;;;;;10.65;6.95;;;;;;;14.32;26.00;96058.28;5106125;28;20402;-70
2022/03/24 09:14:48;;;;;;;14.43;6.85;;;;;;;14.43;25.82;96051.59;5104458;28;20031;-69
2022/03/24 09:17:14;;;;;;;11.82;7.13;;;;;;;14.46;25.41;96048.53;5106229;28;20024;-70
2022/03/24 09:19:39;;;;;;;12.75;6.78;;;;;;;14.50;25.74;96040.06;5105414;28;20027;-70
2022/03/24 09:22:05;;;;;;;17.63;7.18;;;;;;;14.54;25.66;96039.47;5106032;28;20031;-70
2022/03/24 09:24:31;;;;;;;13.48;7.13;;;;;;;14.56;25.34;96042.00;5105518;28;20031;-70
2022/03/24 09:26:56;;;;;;;10.80;7.10;;;;;;;14.52;25.28;96029.91;5105857;28;20379;-69
2022/03/24 09:29:22;;;;;;;11.25;7.20;;;;;;;14.67;25.02;96019.94;5106186;28;20020;-69
2022/03/24 09:31:48;;;;;;;14.35;7.05;;;;;;;14.74;24.53;96032.66;5105678;28;20244;-69
2022/03/24 09:34:13;;;;;;;15.00;7.07;;;;;;;14.79;24.24;96014.03;5106421;28;20482;-69
2022/03/24 09:36:40;;;;;;;11.98;7.13;;;;;;;14.82;24.04;96014.53;5105499;28;20102;-69
2022/03/24 09:39:05;;;;;;;17.27;9.00;;;;;;;14.89;23.50;96011.06;5106103;28;20057;-70
2022/03/24 09:41:31;;;;;;;13.77;7.47;;;;;;;14.94;23.54;96014.06;5105442;28;20076;-68
2022/03/24 09:43:57;;;;;;;14.27;6.85;;;;;;;15.04;23.40;96000.25;5110165;28;20027;-69
2022/03/24 09:46:23;;;;;;;10.52;6.75;;;;;;;15.00;23.14;95998.94;5109362;28;20032;-69
2022/03/24 09:48:48;;;;;;;15.13;6.55;;;;;;;15.07;23.09;95994.47;5109295;28;20089;-69
2022/03/24 09:51:14;;;;;;;14.93;7.75;;;;;;;15.11;22.89;95989.47;5110051;28;20047;-68
2022/03/24 09:53:41;;;;;;;13.68;6.95;;;;;;;15.07;22.91;95986.34;5108027;28;20107;-68
2022/03/24 09:56:06;;;;;;;15.00;7.22;;;;;;;15.16;22.90;95985.19;5109781;28;20027;-69
2022/03/24 09:58:32;;;;;;;13.93;7.50;;;;;;;15.20;22.58;95983.75;5108691;28;20047;-69
2022/03/24 10:00:57;;;;;;;12.82;7.10;;;;;;;15.17;22.24;95984.16;5109399;28;20020;-71
2022/03/24 10:03:23;;;;;;;11.20;6.80;;;;;;;15.27;22.40;95978.44;5109051;28;20030;-69
2022/03/24 10:06:07;;;;;;;16.83;7.32;;;;;;;15.27;22.36;95980.28;5108969;28;20032;-69
2022/03/24 10:08:32;;;;;;;10.07;6.47;;;;;;;15.35;22.87;95982.88;5109640;28;20027;-70
2022/03/24 10:11:08;;;;;;;12.98;6.72;;;;;;;15.43;21.95;95971.06;5108583;28;20081;-70
2022/03/24 10:13:53;;;;;;;12.57;7.97;;;;;;;15.47;22.13;95968.84;5109295;28;20490;-70
2022/03/24 10:16:34;;;;;;;11.57;7.22;;;;;;;15.49;22.19;95973.03;5108893;28;20038;-70
2022/03/24 10:19:05;;;;;;;13.23;7.07;;;;;;;15.50;22.40;95965.75;5108963;28;20032;-69
2022/03/24 10:21:41;;;;;;;11.15;6.55;;;;;;;15.52;22.59;95963.69;5109682;28;20079;-70
2022/03/24 10:24:08;;;;;;;10.63;6.43;;;;;;;15.61;22.53;95957.09;5107667;28;20024;-72
2022/03/24 10:26:45;;;;;;;15.02;6.97;;;;;;;15.63;22.18;95962.31;5108809;28;20085;-70
2022/03/24 10:29:12;;;;;;;12.30;6.93;;;;;;;15.62;22.16;95947.13;5108890;27;20052;-70
2022/03/24 10:31:37;;;;;;;17.55;7.10;;;;;;;15.56;22.02;95951.44;5108816;28;20024;-70
2022/03/24 10:34:03;;;;;;;15.90;6.78;;;;;;;15.64;21.89;95950.44;5108538;28;20031;-71
2022/03/24 10:36:29;;;;;;;14.15;6.95;;;;;;;15.59;22.02;95948.34;5108912;28;20092;-70
2022/03/24 10:39:04;;;;;;;12.85;7.43;;;;;;;15.61;21.99;95940.03;5107226;28;20073;-69
2022/03/24 10:41:34;;;;;;;13.95;7.35;;;;;;;15.62;22.33;95937.13;5107093;28;20030;-70
2022/03/24 10:44:07;;;;;;;13.07;7.55;;;;;;;15.65;22.36;95934.03;5108488;28;20030;-70
2022/03/24 10:46:34;;;;;;;10.25;6.28;;;;;;;15.70;21.57;95928.06;5107988;28;20371;-69
2022/03/24 10:49:14;;;;;;;12.07;6.55;;;;;;;15.71;21.71;95916.19;5108182;28;20053;-70
2022/03/24 10:51:42;;;;;;;10.40;6.68;;;;;;;15.74;22.46;95907.69;5108621;28;20066;-69
2022/03/24 10:54:25;;;;;;;12.48;6.25;;;;;;;15.90;21.07;95906.53;5106308;28;20028;-69
2022/03/24 10:57:13;;;;;;;11.57;6.40;;;;;;;15.98;21.70;95904.72;5108002;28;20054;-69
2022/03/24 10:59:41;;;;;;;15.80;7.40;;;;;;;16.03;20.84;95881.47;5108064;28;20020;-70
2022/03/24 11:02:07;;;;;;;10.70;6.10;;;;;;;16.08;20.86;95901.66;5107948;27;20020;-72
2022/03/24 11:04:32;;;;;;;11.57;6.47;;;;;;;16.14;21.02;95895.44;5108311;28;20418;-72
2022/03/24 11:06:58;;;;;;;12.98;6.18;;;;;;;16.19;20.60;95888.41;5106362;28;20034;-70
2022/03/24 11:09:27;;;;;;;9.65;6.63;;;;;;;16.28;20.58;95872.81;5108359;28;20034;-71
2022/03/24 11:12:38;;;;;;;12.05;6.75;;;;;;;16.34;20.59;95879.31;5105876;28;20035;-69
2022/03/24 11:15:05;;;;;;;9.48;5.75;;;;;;;16.39;20.12;95871.41;5107822;28;20485;-70
2022/03/24 11:17:32;;;;;;;18.48;7.57;;;;;;;16.36;20.59;95860.16;5106828;28;20077;-70
2022/03/24 11:20:08;;;;;;;17.75;7.15;;;;;;;16.35;20.23;95870.13;5107530;28;20043;-70
2022/03/24 11:22:42;;;;;;;12.52;6.40;;;;;;;16.40;20.21;95870.38;5108290;28;20067;-72
2022/03/24 11:25:08;;;;;;;11.52;6.22;;;;;;;16.45;19.93;95872.47;5107009;28;20019;-70